sensor_id;sensor_type;location;lat;lon;timestamp;temperature;humidity
35633;DHT22;21754;48.216;-1.628;2022-08-19T00:00:11;22.90;99.90
35633;DHT22;21754;48.216;-1.628;2022-08-19T00:02:40;22.90;99.90
35633;DHT22;21754;48.216;-1.628;2022-08-19T00:05:07;22.90;99.90
35633;DHT22;21754;48.216;-1.628;2022-08-19T00:41:46;22.80;99.90
35633;DHT22;21754;48.216;-1.628;2022-08-19T00:44:23;23.00;99.90
35633;DHT22;21754;48.216;-1.628;2022-08-19T00:46:52;23.00;99.90
35633;DHT22;21754;48.216;-1.628;2022-08-19T00:49:44;23.10;99.90
35633;DHT22;21754;48.216;-1.628;2022-08-19T00:52:17;23.00;99.90
35633;DHT22;21754;48.216;-1.628;2022-08-19T00:54:44;23.10;99.90
35633;DHT22;21754;48.216;-1.628;2022-08-19T00:57:14;23.10;99.90
35633;DHT22;21754;48.216;-1.628;2022-08-19T00:59:42;23.10;99.90
35633;DHT22;21754;48.216;-1.628;2022-08-19T01:02:11;23.00;99.90
35633;DHT22;21754;48.216;-1.628;2022-08-19T01:04:37;23.10;99.90
35633;DHT22;21754;48.216;-1.628;2022-08-19T01:07:03;23.10;99.90
35633;DHT22;21754;48.216;-1.628;2022-08-19T01:09:29;23.10;99.90
35633;DHT22;21754;48.216;-1.628;2022-08-19T01:11:56;23.10;99.90
35633;DHT22;21754;48.216;-1.628;2022-08-19T01:14:22;23.10;99.90
35633;DHT22;21754;48.216;-1.628;2022-08-19T01:16:48;23.10;99.90
35633;DHT22;21754;48.216;-1.628;2022-08-19T01:19:28;23.10;99.90
35633;DHT22;21754;48.216;-1.628;2022-08-19T01:22:00;23.10;99.90
35633;DHT22;21754;48.216;-1.628;2022-08-19T01:24:27;23.10;99.90
35633;DHT22;21754;48.216;-1.628;2022-08-19T01:26:53;23.10;99.90
35633;DHT22;21754;48.216;-1.628;2022-08-19T01:29:20;23.10;99.90
35633;DHT22;21754;48.216;-1.628;2022-08-19T01:31:46;23.10;99.90
35633;DHT22;21754;48.216;-1.628;2022-08-19T01:34:11;23.20;99.90
35633;DHT22;21754;48.216;-1.628;2022-08-19T01:36:41;23.20;99.90
35633;DHT22;21754;48.216;-1.628;2022-08-19T01:39:10;23.20;99.90
35633;DHT22;21754;48.216;-1.628;2022-08-19T01:41:36;23.10;99.90
35633;DHT22;21754;48.216;-1.628;2022-08-19T01:44:03;23.10;99.90
35633;DHT22;21754;48.216;-1.628;2022-08-19T01:46:30;23.10;99.90
35633;DHT22;21754;48.216;-1.628;2022-08-19T01:48:56;23.20;99.90
35633;DHT22;21754;48.216;-1.628;2022-08-19T01:51:22;23.20;99.90
35633;DHT22;21754;48.216;-1.628;2022-08-19T01:53:49;23.20;99.90
35633;DHT22;21754;48.216;-1.628;2022-08-19T01:56:15;23.20;99.90
35633;DHT22;21754;48.216;-1.628;2022-08-19T01:58:55;23.20;99.90
35633;DHT22;21754;48.216;-1.628;2022-08-19T02:01:22;23.20;99.90
35633;DHT22;21754;48.216;-1.628;2022-08-19T02:03:48;23.20;99.90
35633;DHT22;21754;48.216;-1.628;2022-08-19T02:06:14;23.20;99.90
35633;DHT22;21754;48.216;-1.628;2022-08-19T02:08:40;23.20;99.90
35633;DHT22;21754;48.216;-1.628;2022-08-19T02:11:06;23.20;99.90
35633;DHT22;21754;48.216;-1.628;2022-08-19T02:13:33;23.20;99.90
35633;DHT22;21754;48.216;-1.628;2022-08-19T02:15:59;23.20;99.90
35633;DHT22;21754;48.216;-1.628;2022-08-19T02:18:25;23.20;99.90
35633;DHT22;21754;48.216;-1.628;2022-08-19T02:20:52;23.20;99.90
35633;DHT22;21754;48.216;-1.628;2022-08-19T02:23:17;23.20;99.90
35633;DHT22;21754;48.216;-1.628;2022-08-19T02:25:48;23.20;99.90
35633;DHT22;21754;48.216;-1.628;2022-08-19T02:28:14;23.20;99.90
35633;DHT22;21754;48.216;-1.628;2022-08-19T02:30:41;23.10;99.90
35633;DHT22;21754;48.216;-1.628;2022-08-19T02:33:07;23.10;99.90
35633;DHT22;21754;48.216;-1.628;2022-08-19T02:35:33;23.10;99.90
35633;DHT22;21754;48.216;-1.628;2022-08-19T02:37:58;23.10;99.90
35633;DHT22;21754;48.216;-1.628;2022-08-19T02:40:49;23.00;99.90
35633;DHT22;21754;48.216;-1.628;2022-08-19T02:43:17;23.00;99.90
35633;DHT22;21754;48.216;-1.628;2022-08-19T02:45:43;23.00;99.90
35633;DHT22;21754;48.216;-1.628;2022-08-19T02:48:09;23.00;99.90
35633;DHT22;21754;48.216;-1.628;2022-08-19T02:50:38;23.00;99.90
35633;DHT22;21754;48.216;-1.628;2022-08-19T02:53:05;23.00;99.90
35633;DHT22;21754;48.216;-1.628;2022-08-19T02:55:32;23.00;99.90
35633;DHT22;21754;48.216;-1.628;2022-08-19T02:57:58;23.00;99.90
35633;DHT22;21754;48.216;-1.628;2022-08-19T03:00:25;23.00;99.90
35633;DHT22;21754;48.216;-1.628;2022-08-19T03:02:52;23.00;99.90
35633;DHT22;21754;48.216;-1.628;2022-08-19T03:05:18;23.00;99.90
35633;DHT22;21754;48.216;-1.628;2022-08-19T03:07:43;23.00;99.90
35633;DHT22;21754;48.216;-1.628;2022-08-19T03:10:09;23.00;99.90
35633;DHT22;21754;48.216;-1.628;2022-08-19T03:12:37;23.00;99.90
35633;DHT22;21754;48.216;-1.628;2022-08-19T03:15:05;23.00;99.90
35633;DHT22;21754;48.216;-1.628;2022-08-19T03:17:31;23.00;99.90
35633;DHT22;21754;48.216;-1.628;2022-08-19T04:11:26;23.00;99.90
35633;DHT22;21754;48.216;-1.628;2022-08-19T04:13:54;23.20;99.90
35633;DHT22;21754;48.216;-1.628;2022-08-19T04:16:23;23.20;99.90
35633;DHT22;21754;48.216;-1.628;2022-08-19T04:18:49;23.20;99.90
35633;DHT22;21754;48.216;-1.628;2022-08-19T04:21:21;23.20;99.90
35633;DHT22;21754;48.216;-1.628;2022-08-19T04:23:48;23.20;99.90
35633;DHT22;21754;48.216;-1.628;2022-08-19T04:26:20;23.20;99.90
35633;DHT22;21754;48.216;-1.628;2022-08-19T04:28:46;23.20;99.90
35633;DHT22;21754;48.216;-1.628;2022-08-19T04:31:18;23.20;99.90
35633;DHT22;21754;48.216;-1.628;2022-08-19T04:33:44;23.20;99.90
35633;DHT22;21754;48.216;-1.628;2022-08-19T04:36:27;23.20;99.90
35633;DHT22;21754;48.216;-1.628;2022-08-19T04:38:58;23.20;99.90
35633;DHT22;21754;48.216;-1.628;2022-08-19T04:41:24;23.20;99.90
35633;DHT22;21754;48.216;-1.628;2022-08-19T04:44:09;23.20;99.90
35633;DHT22;21754;48.216;-1.628;2022-08-19T04:46:36;23.10;99.90
35633;DHT22;21754;48.216;-1.628;2022-08-19T04:49:03;23.20;99.90
35633;DHT22;21754;48.216;-1.628;2022-08-19T04:51:31;23.20;99.90
35633;DHT22;21754;48.216;-1.628;2022-08-19T04:53:57;23.20;99.90
35633;DHT22;21754;48.216;-1.628;2022-08-19T04:56:24;23.20;99.90
35633;DHT22;21754;48.216;-1.628;2022-08-19T04:58:52;23.20;99.90
35633;DHT22;21754;48.216;-1.628;2022-08-19T05:01:22;23.20;99.90
35633;DHT22;21754;48.216;-1.628;2022-08-19T05:03:49;23.20;99.90
35633;DHT22;21754;48.216;-1.628;2022-08-19T05:06:17;23.20;99.90
35633;DHT22;21754;48.216;-1.628;2022-08-19T05:08:43;23.10;99.90
35633;DHT22;21754;48.216;-1.628;2022-08-19T05:11:16;23.20;99.90
35633;DHT22;21754;48.216;-1.628;2022-08-19T05:13:43;23.20;99.90
35633;DHT22;21754;48.216;-1.628;2022-08-19T05:16:11;23.20;99.90
35633;DHT22;21754;48.216;-1.628;2022-08-19T05:18:38;23.20;99.90
35633;DHT22;21754;48.216;-1.628;2022-08-19T05:21:23;23.20;99.90
35633;DHT22;21754;48.216;-1.628;2022-08-19T05:24:07;23.20;99.90
35633;DHT22;21754;48.216;-1.628;2022-08-19T05:26:41;23.20;99.90
35633;DHT22;21754;48.216;-1.628;2022-08-19T05:29:07;23.20;99.90
35633;DHT22;21754;48.216;-1.628;2022-08-19T05:31:34;23.20;99.90
35633;DHT22;21754;48.216;-1.628;2022-08-19T05:34:01;23.20;99.90
35633;DHT22;21754;48.216;-1.628;2022-08-19T05:36:28;23.20;99.90
35633;DHT22;21754;48.216;-1.628;2022-08-19T05:38:58;23.20;99.90
35633;DHT22;21754;48.216;-1.628;2022-08-19T05:41:23;23.20;99.90
35633;DHT22;21754;48.216;-1.628;2022-08-19T05:44:01;23.20;99.90
35633;DHT22;21754;48.216;-1.628;2022-08-19T05:46:26;23.20;99.90
35633;DHT22;21754;48.216;-1.628;2022-08-19T05:48:52;23.20;99.90
35633;DHT22;21754;48.216;-1.628;2022-08-19T05:51:18;23.30;99.90
35633;DHT22;21754;48.216;-1.628;2022-08-19T05:53:44;23.30;99.90
35633;DHT22;21754;48.216;-1.628;2022-08-19T05:56:15;23.30;99.90
35633;DHT22;21754;48.216;-1.628;2022-08-19T05:58:42;23.30;99.90
35633;DHT22;21754;48.216;-1.628;2022-08-19T06:01:15;23.30;99.90
35633;DHT22;21754;48.216;-1.628;2022-08-19T06:03:42;23.30;99.90
35633;DHT22;21754;48.216;-1.628;2022-08-19T06:06:10;23.30;99.90
35633;DHT22;21754;48.216;-1.628;2022-08-19T06:08:37;23.30;99.90
35633;DHT22;21754;48.216;-1.628;2022-08-19T06:11:23;23.30;99.90
35633;DHT22;21754;48.216;-1.628;2022-08-19T06:13:52;23.30;99.90
35633;DHT22;21754;48.216;-1.628;2022-08-19T06:16:21;23.30;99.90
35633;DHT22;21754;48.216;-1.628;2022-08-19T06:18:51;23.30;99.90
35633;DHT22;21754;48.216;-1.628;2022-08-19T06:21:20;23.40;99.90
35633;DHT22;21754;48.216;-1.628;2022-08-19T06:23:47;23.40;99.90
35633;DHT22;21754;48.216;-1.628;2022-08-19T06:26:14;23.40;99.90
35633;DHT22;21754;48.216;-1.628;2022-08-19T06:28:40;23.50;99.90
35633;DHT22;21754;48.216;-1.628;2022-08-19T06:31:09;23.50;99.90
35633;DHT22;21754;48.216;-1.628;2022-08-19T06:33:35;23.50;99.90
35633;DHT22;21754;48.216;-1.628;2022-08-19T06:36:01;23.50;99.90
35633;DHT22;21754;48.216;-1.628;2022-08-19T06:38:26;23.60;99.90
35633;DHT22;21754;48.216;-1.628;2022-08-19T06:41:03;23.60;99.90
35633;DHT22;21754;48.216;-1.628;2022-08-19T06:43:29;23.60;99.90
35633;DHT22;21754;48.216;-1.628;2022-08-19T06:45:55;23.60;99.90
35633;DHT22;21754;48.216;-1.628;2022-08-19T06:48:20;23.70;99.90
35633;DHT22;21754;48.216;-1.628;2022-08-19T06:50:46;23.80;99.90
35633;DHT22;21754;48.216;-1.628;2022-08-19T06:53:12;23.80;99.90
35633;DHT22;21754;48.216;-1.628;2022-08-19T06:55:38;23.90;99.90
35633;DHT22;21754;48.216;-1.628;2022-08-19T06:58:06;23.90;99.90
35633;DHT22;21754;48.216;-1.628;2022-08-19T07:00:32;23.90;99.90
35633;DHT22;21754;48.216;-1.628;2022-08-19T07:02:58;23.90;99.90
35633;DHT22;21754;48.216;-1.628;2022-08-19T07:05:24;23.90;99.90
35633;DHT22;21754;48.216;-1.628;2022-08-19T07:07:50;23.90;99.90
35633;DHT22;21754;48.216;-1.628;2022-08-19T07:10:15;24.00;99.90
35633;DHT22;21754;48.216;-1.628;2022-08-19T07:12:41;24.10;99.90
35633;DHT22;21754;48.216;-1.628;2022-08-19T07:15:07;24.10;99.90
35633;DHT22;21754;48.216;-1.628;2022-08-19T07:17:36;24.10;99.90
35633;DHT22;21754;48.216;-1.628;2022-08-19T07:20:05;24.10;99.90
35633;DHT22;21754;48.216;-1.628;2022-08-19T07:22:33;24.20;99.90
35633;DHT22;21754;48.216;-1.628;2022-08-19T07:24:59;24.20;99.90
35633;DHT22;21754;48.216;-1.628;2022-08-19T07:27:25;24.20;99.90
35633;DHT22;21754;48.216;-1.628;2022-08-19T07:29:54;24.20;99.90
35633;DHT22;21754;48.216;-1.628;2022-08-19T07:32:20;24.20;99.90
35633;DHT22;21754;48.216;-1.628;2022-08-19T07:34:45;24.20;99.90
35633;DHT22;21754;48.216;-1.628;2022-08-19T07:37:11;24.20;99.90
35633;DHT22;21754;48.216;-1.628;2022-08-19T07:39:37;24.30;99.90
35633;DHT22;21754;48.216;-1.628;2022-08-19T07:42:07;24.40;99.90
35633;DHT22;21754;48.216;-1.628;2022-08-19T07:44:34;24.40;99.90
35633;DHT22;21754;48.216;-1.628;2022-08-19T07:47:00;24.50;99.90
35633;DHT22;21754;48.216;-1.628;2022-08-19T07:49:27;24.50;99.90
35633;DHT22;21754;48.216;-1.628;2022-08-19T07:51:56;24.60;99.90
35633;DHT22;21754;48.216;-1.628;2022-08-19T07:54:25;24.60;99.90
35633;DHT22;21754;48.216;-1.628;2022-08-19T07:56:51;24.70;99.90
35633;DHT22;21754;48.216;-1.628;2022-08-19T07:59:18;24.70;99.90
35633;DHT22;21754;48.216;-1.628;2022-08-19T08:01:44;24.80;99.90
35633;DHT22;21754;48.216;-1.628;2022-08-19T08:04:10;24.90;99.90
35633;DHT22;21754;48.216;-1.628;2022-08-19T08:06:54;24.90;99.90
35633;DHT22;21754;48.216;-1.628;2022-08-19T08:09:41;24.90;99.90
35633;DHT22;21754;48.216;-1.628;2022-08-19T08:17:08;24.90;99.90
35633;DHT22;21754;48.216;-1.628;2022-08-19T08:19:35;24.90;99.90
35633;DHT22;21754;48.216;-1.628;2022-08-19T08:22:01;25.00;99.90
35633;DHT22;21754;48.216;-1.628;2022-08-19T08:24:29;25.10;99.90
35633;DHT22;21754;48.216;-1.628;2022-08-19T08:26:57;25.10;99.90
35633;DHT22;21754;48.216;-1.628;2022-08-19T08:29:23;25.10;99.90
35633;DHT22;21754;48.216;-1.628;2022-08-19T08:31:49;25.20;99.90
35633;DHT22;21754;48.216;-1.628;2022-08-19T08:34:15;24.90;99.90
35633;DHT22;21754;48.216;-1.628;2022-08-19T08:36:43;25.00;99.90
35633;DHT22;21754;48.216;-1.628;2022-08-19T08:39:14;25.20;99.90
35633;DHT22;21754;48.216;-1.628;2022-08-19T08:41:54;25.30;99.90
35633;DHT22;21754;48.216;-1.628;2022-08-19T08:44:37;25.40;99.90
35633;DHT22;21754;48.216;-1.628;2022-08-19T08:47:09;25.40;99.90
35633;DHT22;21754;48.216;-1.628;2022-08-19T08:49:57;25.50;99.90
35633;DHT22;21754;48.216;-1.628;2022-08-19T08:52:33;25.60;99.90
35633;DHT22;21754;48.216;-1.628;2022-08-19T08:55:09;25.70;99.90
35633;DHT22;21754;48.216;-1.628;2022-08-19T08:57:49;25.80;99.90
35633;DHT22;21754;48.216;-1.628;2022-08-19T09:00:26;25.80;99.90
35633;DHT22;21754;48.216;-1.628;2022-08-19T09:02:53;25.70;99.90
35633;DHT22;21754;48.216;-1.628;2022-08-19T09:05:20;25.80;99.90
35633;DHT22;21754;48.216;-1.628;2022-08-19T09:08:00;25.80;99.90
35633;DHT22;21754;48.216;-1.628;2022-08-19T09:10:46;26.00;99.90
35633;DHT22;21754;48.216;-1.628;2022-08-19T09:16:06;26.00;99.90
35633;DHT22;21754;48.216;-1.628;2022-08-19T09:18:44;26.10;99.90
35633;DHT22;21754;48.216;-1.628;2022-08-19T09:21:11;26.10;99.90
35633;DHT22;21754;48.216;-1.628;2022-08-19T09:23:37;26.10;99.90
35633;DHT22;21754;48.216;-1.628;2022-08-19T09:26:07;26.00;99.90
35633;DHT22;21754;48.216;-1.628;2022-08-19T09:28:34;26.10;99.90
35633;DHT22;21754;48.216;-1.628;2022-08-19T09:31:00;25.80;99.90
35633;DHT22;21754;48.216;-1.628;2022-08-19T09:33:26;25.90;99.90
35633;DHT22;21754;48.216;-1.628;2022-08-19T09:36:04;26.00;99.90
35633;DHT22;21754;48.216;-1.628;2022-08-19T09:38:30;26.00;99.90
35633;DHT22;21754;48.216;-1.628;2022-08-19T09:40:55;26.10;99.90
35633;DHT22;21754;48.216;-1.628;2022-08-19T09:43:21;26.20;99.90
35633;DHT22;21754;48.216;-1.628;2022-08-19T09:45:46;26.00;99.90
35633;DHT22;21754;48.216;-1.628;2022-08-19T09:48:13;26.00;99.90
35633;DHT22;21754;48.216;-1.628;2022-08-19T09:50:38;26.20;99.90
35633;DHT22;21754;48.216;-1.628;2022-08-19T09:53:04;26.30;99.90
35633;DHT22;21754;48.216;-1.628;2022-08-19T09:55:32;26.30;99.90
35633;DHT22;21754;48.216;-1.628;2022-08-19T09:58:01;26.40;99.90
35633;DHT22;21754;48.216;-1.628;2022-08-19T10:00:28;26.50;99.90
35633;DHT22;21754;48.216;-1.628;2022-08-19T10:02:53;26.50;99.90
35633;DHT22;21754;48.216;-1.628;2022-08-19T10:05:19;26.50;99.90
35633;DHT22;21754;48.216;-1.628;2022-08-19T10:08:03;26.70;99.90
35633;DHT22;21754;48.216;-1.628;2022-08-19T10:10:30;26.50;99.90
35633;DHT22;21754;48.216;-1.628;2022-08-19T10:12:59;26.60;99.90
35633;DHT22;21754;48.216;-1.628;2022-08-19T10:15:25;26.70;99.90
35633;DHT22;21754;48.216;-1.628;2022-08-19T10:17:51;26.90;99.90
35633;DHT22;21754;48.216;-1.628;2022-08-19T10:34:56;27.00;99.90
35633;DHT22;21754;48.216;-1.628;2022-08-19T10:37:22;27.50;99.90
35633;DHT22;21754;48.216;-1.628;2022-08-19T10:39:48;27.50;99.90
35633;DHT22;21754;48.216;-1.628;2022-08-19T10:42:13;27.20;99.90
35633;DHT22;21754;48.216;-1.628;2022-08-19T10:44:40;27.30;99.90
35633;DHT22;21754;48.216;-1.628;2022-08-19T10:49:32;27.40;99.90
35633;DHT22;21754;48.216;-1.628;2022-08-19T10:52:17;27.50;99.90
35633;DHT22;21754;48.216;-1.628;2022-08-19T11:27:09;27.60;99.90
35633;DHT22;21754;48.216;-1.628;2022-08-19T11:29:37;27.90;99.90
35633;DHT22;21754;48.216;-1.628;2022-08-19T11:32:09;28.10;99.90
35633;DHT22;21754;48.216;-1.628;2022-08-19T11:34:36;28.20;99.90
35633;DHT22;21754;48.216;-1.628;2022-08-19T11:37:02;28.40;99.90
35633;DHT22;21754;48.216;-1.628;2022-08-19T11:39:30;28.40;99.90
35633;DHT22;21754;48.216;-1.628;2022-08-19T11:42:00;28.50;99.90
35633;DHT22;21754;48.216;-1.628;2022-08-19T11:44:27;28.40;99.90
35633;DHT22;21754;48.216;-1.628;2022-08-19T11:46:55;28.30;99.90
35633;DHT22;21754;48.216;-1.628;2022-08-19T11:49:21;28.30;99.90
35633;DHT22;21754;48.216;-1.628;2022-08-19T11:51:48;28.30;99.90
35633;DHT22;21754;48.216;-1.628;2022-08-19T11:54:15;28.30;99.90
35633;DHT22;21754;48.216;-1.628;2022-08-19T11:56:42;28.30;99.90
35633;DHT22;21754;48.216;-1.628;2022-08-19T11:59:08;28.10;99.90
35633;DHT22;21754;48.216;-1.628;2022-08-19T12:01:34;28.00;99.90
35633;DHT22;21754;48.216;-1.628;2022-08-19T12:04:00;27.80;99.90
35633;DHT22;21754;48.216;-1.628;2022-08-19T12:06:28;27.70;99.90
35633;DHT22;21754;48.216;-1.628;2022-08-19T12:08:59;27.60;99.90
35633;DHT22;21754;48.216;-1.628;2022-08-19T12:11:26;27.50;99.90
35633;DHT22;21754;48.216;-1.628;2022-08-19T12:13:52;27.40;99.90
35633;DHT22;21754;48.216;-1.628;2022-08-19T12:16:22;27.30;99.90
35633;DHT22;21754;48.216;-1.628;2022-08-19T12:18:49;27.40;99.90
35633;DHT22;21754;48.216;-1.628;2022-08-19T12:21:19;27.40;99.90
35633;DHT22;21754;48.216;-1.628;2022-08-19T12:23:48;27.50;99.90
35633;DHT22;21754;48.216;-1.628;2022-08-19T12:26:14;27.70;99.90
35633;DHT22;21754;48.216;-1.628;2022-08-19T12:28:40;27.60;99.90
35633;DHT22;21754;48.216;-1.628;2022-08-19T12:31:07;27.60;99.90
35633;DHT22;21754;48.216;-1.628;2022-08-19T12:33:33;27.50;99.90
35633;DHT22;21754;48.216;-1.628;2022-08-19T12:36:07;27.60;99.90
35633;DHT22;21754;48.216;-1.628;2022-08-19T12:38:33;27.60;99.90
35633;DHT22;21754;48.216;-1.628;2022-08-19T12:41:03;27.70;99.90
35633;DHT22;21754;48.216;-1.628;2022-08-19T12:43:31;27.90;99.90
35633;DHT22;21754;48.216;-1.628;2022-08-19T12:45:57;28.00;99.90
35633;DHT22;21754;48.216;-1.628;2022-08-19T12:48:23;28.00;99.90
35633;DHT22;21754;48.216;-1.628;2022-08-19T12:50:49;28.20;99.90
35633;DHT22;21754;48.216;-1.628;2022-08-19T12:53:15;28.50;99.90
35633;DHT22;21754;48.216;-1.628;2022-08-19T12:55:42;28.60;99.90
35633;DHT22;21754;48.216;-1.628;2022-08-19T12:58:10;28.50;99.90
35633;DHT22;21754;48.216;-1.628;2022-08-19T13:00:38;28.50;99.90
35633;DHT22;21754;48.216;-1.628;2022-08-19T13:03:03;28.40;99.90
35633;DHT22;21754;48.216;-1.628;2022-08-19T13:05:32;28.30;99.90
35633;DHT22;21754;48.216;-1.628;2022-08-19T13:07:59;28.30;99.90
35633;DHT22;21754;48.216;-1.628;2022-08-19T13:10:35;28.10;99.90
35633;DHT22;21754;48.216;-1.628;2022-08-19T13:13:06;28.00;99.90
35633;DHT22;21754;48.216;-1.628;2022-08-19T13:15:37;27.70;99.90
35633;DHT22;21754;48.216;-1.628;2022-08-19T13:18:06;27.70;99.90
35633;DHT22;21754;48.216;-1.628;2022-08-19T13:20:32;27.60;99.90
35633;DHT22;21754;48.216;-1.628;2022-08-19T13:22:57;27.60;99.90
35633;DHT22;21754;48.216;-1.628;2022-08-19T13:25:23;27.60;99.90
35633;DHT22;21754;48.216;-1.628;2022-08-19T13:27:51;27.40;99.90
35633;DHT22;21754;48.216;-1.628;2022-08-19T13:30:17;27.00;99.90
35633;DHT22;21754;48.216;-1.628;2022-08-19T13:33:02;26.80;99.90
35633;DHT22;21754;48.216;-1.628;2022-08-19T13:35:39;26.00;99.90
35633;DHT22;21754;48.216;-1.628;2022-08-19T13:38:05;25.20;99.90
35633;DHT22;21754;48.216;-1.628;2022-08-19T13:40:32;24.20;99.90
35633;DHT22;21754;48.216;-1.628;2022-08-19T13:43:01;23.50;99.90
35633;DHT22;21754;48.216;-1.628;2022-08-19T13:45:28;23.20;99.90
35633;DHT22;21754;48.216;-1.628;2022-08-19T14:05:04;23.00;99.90
35633;DHT22;21754;48.216;-1.628;2022-08-19T14:07:30;23.20;99.90
35633;DHT22;21754;48.216;-1.628;2022-08-19T14:09:56;23.30;99.90
35633;DHT22;21754;48.216;-1.628;2022-08-19T14:14:48;23.20;99.90
35633;DHT22;21754;48.216;-1.628;2022-08-19T15:03:45;22.90;99.90
35633;DHT22;21754;48.216;-1.628;2022-08-19T15:06:11;23.10;99.90
35633;DHT22;21754;48.216;-1.628;2022-08-19T15:08:38;23.10;99.90
35633;DHT22;21754;48.216;-1.628;2022-08-19T15:11:16;23.10;99.90
35633;DHT22;21754;48.216;-1.628;2022-08-19T15:13:43;23.20;99.90
35633;DHT22;21754;48.216;-1.628;2022-08-19T15:16:10;23.40;99.90
35633;DHT22;21754;48.216;-1.628;2022-08-19T15:18:36;23.40;99.90
35633;DHT22;21754;48.216;-1.628;2022-08-19T15:21:03;23.40;99.90
35633;DHT22;21754;48.216;-1.628;2022-08-19T15:23:29;23.40;99.90
35633;DHT22;21754;48.216;-1.628;2022-08-19T15:25:55;23.20;99.90
35633;DHT22;21754;48.216;-1.628;2022-08-19T15:28:22;22.70;99.90
35633;DHT22;21754;48.216;-1.628;2022-08-19T15:30:48;22.40;99.90
35633;DHT22;21754;48.216;-1.628;2022-08-19T15:33:15;22.20;99.90
35633;DHT22;21754;48.216;-1.628;2022-08-19T15:38:10;22.00;99.90
35633;DHT22;21754;48.216;-1.628;2022-08-19T15:40:39;22.10;99.90
35633;DHT22;21754;48.216;-1.628;2022-08-19T15:43:05;22.10;99.90
35633;DHT22;21754;48.216;-1.628;2022-08-19T15:45:31;22.20;99.90
35633;DHT22;21754;48.216;-1.628;2022-08-19T15:48:01;22.30;99.90
35633;DHT22;21754;48.216;-1.628;2022-08-19T15:50:28;22.20;99.90
35633;DHT22;21754;48.216;-1.628;2022-08-19T15:52:59;22.10;99.90
35633;DHT22;21754;48.216;-1.628;2022-08-19T15:55:32;22.10;99.90
35633;DHT22;21754;48.216;-1.628;2022-08-19T15:58:10;22.00;99.90
35633;DHT22;21754;48.216;-1.628;2022-08-19T16:01:03;21.70;99.90
35633;DHT22;21754;48.216;-1.628;2022-08-19T16:03:48;21.40;99.90
35633;DHT22;21754;48.216;-1.628;2022-08-19T16:06:34;21.40;99.90
35633;DHT22;21754;48.216;-1.628;2022-08-19T16:09:01;21.50;99.90
35633;DHT22;21754;48.216;-1.628;2022-08-19T16:11:30;21.60;99.90
35633;DHT22;21754;48.216;-1.628;2022-08-19T16:13:57;21.70;99.90
35633;DHT22;21754;48.216;-1.628;2022-08-19T16:16:30;21.80;99.90
35633;DHT22;21754;48.216;-1.628;2022-08-19T16:18:57;22.00;99.90
35633;DHT22;21754;48.216;-1.628;2022-08-19T16:21:25;22.20;99.90
35633;DHT22;21754;48.216;-1.628;2022-08-19T16:23:52;22.20;99.90
35633;DHT22;21754;48.216;-1.628;2022-08-19T16:26:18;22.30;99.90
35633;DHT22;21754;48.216;-1.628;2022-08-19T16:28:45;22.40;99.90
35633;DHT22;21754;48.216;-1.628;2022-08-19T16:31:13;22.60;99.90
35633;DHT22;21754;48.216;-1.628;2022-08-19T16:33:39;22.70;99.90
35633;DHT22;21754;48.216;-1.628;2022-08-19T16:36:05;22.90;99.90
35633;DHT22;21754;48.216;-1.628;2022-08-19T16:38:32;23.10;99.90
35633;DHT22;21754;48.216;-1.628;2022-08-19T16:40:58;23.10;99.90
35633;DHT22;21754;48.216;-1.628;2022-08-19T19:33:44;23.20;99.90
35633;DHT22;21754;48.216;-1.628;2022-08-19T19:36:10;20.40;99.90
35633;DHT22;21754;48.216;-1.628;2022-08-19T19:38:36;20.40;99.90
35633;DHT22;21754;48.216;-1.628;2022-08-19T19:41:02;20.20;99.90
35633;DHT22;21754;48.216;-1.628;2022-08-19T19:43:29;20.20;99.90
35633;DHT22;21754;48.216;-1.628;2022-08-19T19:45:55;20.10;99.90
35633;DHT22;21754;48.216;-1.628;2022-08-19T19:48:21;20.00;99.90
35633;DHT22;21754;48.216;-1.628;2022-08-19T19:50:49;20.00;99.90
35633;DHT22;21754;48.216;-1.628;2022-08-19T19:53:14;20.00;99.90
35633;DHT22;21754;48.216;-1.628;2022-08-19T19:55:41;20.00;99.90
35633;DHT22;21754;48.216;-1.628;2022-08-19T19:58:07;20.00;99.90
35633;DHT22;21754;48.216;-1.628;2022-08-19T20:00:34;20.00;99.90
35633;DHT22;21754;48.216;-1.628;2022-08-19T20:03:00;19.90;99.90
35633;DHT22;21754;48.216;-1.628;2022-08-19T20:05:26;19.90;99.90
35633;DHT22;21754;48.216;-1.628;2022-08-19T20:07:53;19.90;99.90
35633;DHT22;21754;48.216;-1.628;2022-08-19T20:10:39;19.90;99.90
35633;DHT22;21754;48.216;-1.628;2022-08-19T20:13:06;19.90;99.90
35633;DHT22;21754;48.216;-1.628;2022-08-19T20:15:32;19.90;99.90
35633;DHT22;21754;48.216;-1.628;2022-08-19T20:18:00;19.90;99.90
35633;DHT22;21754;48.216;-1.628;2022-08-19T20:20:29;19.90;99.90
35633;DHT22;21754;48.216;-1.628;2022-08-19T20:22:56;19.90;99.90
35633;DHT22;21754;48.216;-1.628;2022-08-19T20:25:22;19.80;99.90
35633;DHT22;21754;48.216;-1.628;2022-08-19T20:27:47;19.80;99.90
35633;DHT22;21754;48.216;-1.628;2022-08-19T20:30:17;19.80;99.90
35633;DHT22;21754;48.216;-1.628;2022-08-19T20:52:23;19.70;99.90
35633;DHT22;21754;48.216;-1.628;2022-08-19T20:54:48;19.50;99.90
35633;DHT22;21754;48.216;-1.628;2022-08-19T20:57:14;19.40;99.90
35633;DHT22;21754;48.216;-1.628;2022-08-19T20:59:40;19.40;99.90
35633;DHT22;21754;48.216;-1.628;2022-08-19T21:02:05;19.30;99.90
35633;DHT22;21754;48.216;-1.628;2022-08-19T21:04:31;19.30;99.90
35633;DHT22;21754;48.216;-1.628;2022-08-19T21:06:57;19.30;99.90
35633;DHT22;21754;48.216;-1.628;2022-08-19T21:09:23;19.30;99.90
35633;DHT22;21754;48.216;-1.628;2022-08-19T21:11:49;19.30;99.90
35633;DHT22;21754;48.216;-1.628;2022-08-19T21:14:15;19.30;99.90
35633;DHT22;21754;48.216;-1.628;2022-08-19T21:16:40;19.30;99.90
35633;DHT22;21754;48.216;-1.628;2022-08-19T21:19:06;19.30;99.90
35633;DHT22;21754;48.216;-1.628;2022-08-19T21:33:45;19.30;99.90
35633;DHT22;21754;48.216;-1.628;2022-08-19T21:36:11;19.10;99.90
35633;DHT22;21754;48.216;-1.628;2022-08-19T21:38:36;19.10;99.90
35633;DHT22;21754;48.216;-1.628;2022-08-19T21:41:03;19.10;99.90
35633;DHT22;21754;48.216;-1.628;2022-08-19T21:48:21;19.00;99.90
35633;DHT22;21754;48.216;-1.628;2022-08-19T21:50:48;18.90;99.90
35633;DHT22;21754;48.216;-1.628;2022-08-19T21:53:15;18.90;99.90
35633;DHT22;21754;48.216;-1.628;2022-08-19T22:12:51;18.80;99.90
35633;DHT22;21754;48.216;-1.628;2022-08-19T22:15:19;18.70;99.90
35633;DHT22;21754;48.216;-1.628;2022-08-19T22:17:46;18.70;99.90
35633;DHT22;21754;48.216;-1.628;2022-08-19T22:20:14;18.60;99.90
35633;DHT22;21754;48.216;-1.628;2022-08-19T22:22:46;18.60;99.90
35633;DHT22;21754;48.216;-1.628;2022-08-19T22:25:17;18.60;99.90
35633;DHT22;21754;48.216;-1.628;2022-08-19T22:27:42;18.60;99.90
35633;DHT22;21754;48.216;-1.628;2022-08-19T22:30:10;18.60;99.90
35633;DHT22;21754;48.216;-1.628;2022-08-19T22:32:37;18.70;99.90
35633;DHT22;21754;48.216;-1.628;2022-08-19T22:35:03;18.70;99.90
35633;DHT22;21754;48.216;-1.628;2022-08-19T22:37:29;18.80;99.90